sensor_id;sensor_type;location;lat;lon;timestamp;P1;durP1;ratioP1;P2;durP2;ratioP2
462;SDS011;218;51.902;9.542;2023-06-10T00:00:28;6.63;;;5.37;;
462;SDS011;218;51.902;9.542;2023-06-10T00:02:55;6.43;;;5.70;;
462;SDS011;218;51.902;9.542;2023-06-10T00:05:22;5.67;;;5.27;;
462;SDS011;218;51.902;9.542;2023-06-10T00:07:51;5.70;;;5.20;;
462;SDS011;218;51.902;9.542;2023-06-10T00:10:20;5.93;;;5.43;;
462;SDS011;218;51.902;9.542;2023-06-10T00:12:47;5.30;;;4.90;;
462;SDS011;218;51.902;9.542;2023-06-10T00:15:14;6.17;;;5.57;;
462;SDS011;218;51.902;9.542;2023-06-10T00:17:41;5.73;;;5.23;;
462;SDS011;218;51.902;9.542;2023-06-10T00:20:08;5.83;;;5.37;;
462;SDS011;218;51.902;9.542;2023-06-10T00:22:36;7.53;;;4.90;;
462;SDS011;218;51.902;9.542;2023-06-10T00:25:06;6.00;;;5.70;;
462;SDS011;218;51.902;9.542;2023-06-10T00:27:34;6.60;;;5.30;;
462;SDS011;218;51.902;9.542;2023-06-10T00:30:01;7.47;;;5.80;;
462;SDS011;218;51.902;9.542;2023-06-10T00:32:31;6.13;;;5.63;;
462;SDS011;218;51.902;9.542;2023-06-10T00:34:58;5.10;;;4.80;;
462;SDS011;218;51.902;9.542;2023-06-10T00:37:25;5.63;;;5.10;;
462;SDS011;218;51.902;9.542;2023-06-10T00:39:53;5.73;;;5.23;;
462;SDS011;218;51.902;9.542;2023-06-10T00:42:22;5.33;;;4.87;;
462;SDS011;218;51.902;9.542;2023-06-10T00:44:49;5.33;;;4.93;;
462;SDS011;218;51.902;9.542;2023-06-10T00:47:16;5.63;;;5.23;;
462;SDS011;218;51.902;9.542;2023-06-10T00:49:43;4.93;;;4.63;;
462;SDS011;218;51.902;9.542;2023-06-10T00:52:11;5.53;;;5.13;;
462;SDS011;218;51.902;9.542;2023-06-10T00:54:40;6.03;;;5.53;;
462;SDS011;218;51.902;9.542;2023-06-10T00:57:07;5.67;;;5.20;;
462;SDS011;218;51.902;9.542;2023-06-10T00:59:36;5.37;;;4.97;;
462;SDS011;218;51.902;9.542;2023-06-10T01:02:03;5.80;;;5.30;;
462;SDS011;218;51.902;9.542;2023-06-10T01:04:30;6.23;;;5.70;;
462;SDS011;218;51.902;9.542;2023-06-10T01:07:00;5.90;;;5.40;;
462;SDS011;218;51.902;9.542;2023-06-10T01:09:37;5.50;;;5.10;;
462;SDS011;218;51.902;9.542;2023-06-10T01:12:10;5.97;;;5.47;;
462;SDS011;218;51.902;9.542;2023-06-10T01:14:40;5.60;;;5.10;;
462;SDS011;218;51.902;9.542;2023-06-10T01:17:10;5.60;;;5.20;;
462;SDS011;218;51.902;9.542;2023-06-10T01:19:37;8.03;;;5.70;;
462;SDS011;218;51.902;9.542;2023-06-10T01:22:07;5.27;;;4.87;;
462;SDS011;218;51.902;9.542;2023-06-10T01:24:35;5.87;;;5.53;;
462;SDS011;218;51.902;9.542;2023-06-10T01:27:05;6.27;;;5.77;;
462;SDS011;218;51.902;9.542;2023-06-10T01:29:36;5.50;;;5.10;;
462;SDS011;218;51.902;9.542;2023-06-10T01:32:08;5.80;;;5.30;;
462;SDS011;218;51.902;9.542;2023-06-10T01:34:41;6.50;;;5.53;;
462;SDS011;218;51.902;9.542;2023-06-10T01:37:11;5.33;;;4.93;;
462;SDS011;218;51.902;9.542;2023-06-10T01:39:41;6.90;;;5.77;;
462;SDS011;218;51.902;9.542;2023-06-10T01:42:09;6.30;;;5.80;;
462;SDS011;218;51.902;9.542;2023-06-10T01:44:38;5.97;;;5.50;;
462;SDS011;218;51.902;9.542;2023-06-10T01:47:05;6.03;;;5.60;;
462;SDS011;218;51.902;9.542;2023-06-10T01:49:32;8.23;;;5.87;;
462;SDS011;218;51.902;9.542;2023-06-10T01:51:59;5.40;;;4.90;;
462;SDS011;218;51.902;9.542;2023-06-10T01:54:28;6.30;;;5.80;;
462;SDS011;218;51.902;9.542;2023-06-10T01:56:55;5.37;;;4.97;;
462;SDS011;218;51.902;9.542;2023-06-10T01:59:22;5.60;;;4.97;;
462;SDS011;218;51.902;9.542;2023-06-10T02:01:49;5.90;;;5.40;;
462;SDS011;218;51.902;9.542;2023-06-10T02:04:16;4.93;;;4.50;;
462;SDS011;218;51.902;9.542;2023-06-10T02:06:43;5.77;;;5.30;;
462;SDS011;218;51.902;9.542;2023-06-10T02:09:11;6.20;;;5.70;;
462;SDS011;218;51.902;9.542;2023-06-10T02:11:39;5.80;;;5.23;;
462;SDS011;218;51.902;9.542;2023-06-10T02:14:06;6.10;;;5.60;;
462;SDS011;218;51.902;9.542;2023-06-10T02:16:33;6.40;;;5.90;;
462;SDS011;218;51.902;9.542;2023-06-10T02:19:00;5.27;;;4.83;;
462;SDS011;218;51.902;9.542;2023-06-10T02:21:31;5.27;;;4.97;;
462;SDS011;218;51.902;9.542;2023-06-10T02:23:59;6.13;;;5.60;;
462;SDS011;218;51.902;9.542;2023-06-10T02:26:26;6.20;;;5.13;;
462;SDS011;218;51.902;9.542;2023-06-10T02:28:55;6.67;;;6.07;;
462;SDS011;218;51.902;9.542;2023-06-10T02:31:22;5.70;;;5.20;;
462;SDS011;218;51.902;9.542;2023-06-10T02:33:50;5.13;;;4.73;;
462;SDS011;218;51.902;9.542;2023-06-10T02:36:17;6.20;;;5.37;;
462;SDS011;218;51.902;9.542;2023-06-10T02:38:44;6.40;;;5.80;;
462;SDS011;218;51.902;9.542;2023-06-10T02:41:11;6.20;;;5.23;;
462;SDS011;218;51.902;9.542;2023-06-10T02:43:38;5.63;;;5.13;;
462;SDS011;218;51.902;9.542;2023-06-10T02:46:06;5.73;;;5.30;;
462;SDS011;218;51.902;9.542;2023-06-10T02:48:38;6.47;;;5.03;;
462;SDS011;218;51.902;9.542;2023-06-10T02:51:07;4.90;;;4.60;;
462;SDS011;218;51.902;9.542;2023-06-10T02:53:34;5.70;;;5.20;;
462;SDS011;218;51.902;9.542;2023-06-10T02:56:01;5.47;;;5.00;;
462;SDS011;218;51.902;9.542;2023-06-10T02:58:28;6.23;;;5.73;;
462;SDS011;218;51.902;9.542;2023-06-10T03:00:55;6.17;;;5.70;;
462;SDS011;218;51.902;9.542;2023-06-10T03:03:24;6.50;;;5.10;;
462;SDS011;218;51.902;9.542;2023-06-10T03:05:52;6.67;;;6.10;;
462;SDS011;218;51.902;9.542;2023-06-10T03:08:19;7.10;;;5.10;;
462;SDS011;218;51.902;9.542;2023-06-10T03:10:47;6.00;;;5.47;;
462;SDS011;218;51.902;9.542;2023-06-10T03:13:13;6.57;;;5.77;;
462;SDS011;218;51.902;9.542;2023-06-10T03:15:41;5.50;;;5.00;;
462;SDS011;218;51.902;9.542;2023-06-10T03:18:09;5.40;;;5.03;;
462;SDS011;218;51.902;9.542;2023-06-10T03:20:38;6.80;;;5.37;;
462;SDS011;218;51.902;9.542;2023-06-10T03:23:06;5.33;;;4.90;;
462;SDS011;218;51.902;9.542;2023-06-10T03:25:34;5.40;;;5.00;;
462;SDS011;218;51.902;9.542;2023-06-10T03:28:01;5.83;;;4.90;;
462;SDS011;218;51.902;9.542;2023-06-10T03:30:28;5.57;;;4.97;;
462;SDS011;218;51.902;9.542;2023-06-10T03:32:55;6.27;;;5.87;;
462;SDS011;218;51.902;9.542;2023-06-10T03:35:22;6.93;;;5.30;;
462;SDS011;218;51.902;9.542;2023-06-10T03:37:52;7.83;;;5.97;;
462;SDS011;218;51.902;9.542;2023-06-10T03:40:19;6.27;;;5.37;;
462;SDS011;218;51.902;9.542;2023-06-10T03:42:47;7.17;;;5.90;;
462;SDS011;218;51.902;9.542;2023-06-10T03:45:14;6.60;;;6.10;;
462;SDS011;218;51.902;9.542;2023-06-10T03:47:41;5.87;;;5.30;;
462;SDS011;218;51.902;9.542;2023-06-10T03:50:09;5.60;;;5.10;;
462;SDS011;218;51.902;9.542;2023-06-10T03:52:37;5.95;;;5.35;;
462;SDS011;218;51.902;9.542;2023-06-10T03:55:06;6.33;;;5.73;;
462;SDS011;218;51.902;9.542;2023-06-10T03:57:33;6.33;;;5.73;;
462;SDS011;218;51.902;9.542;2023-06-10T04:00:00;6.10;;;5.67;;
462;SDS011;218;51.902;9.542;2023-06-10T04:02:33;6.77;;;5.70;;
462;SDS011;218;51.902;9.542;2023-06-10T04:05:01;6.07;;;5.47;;
462;SDS011;218;51.902;9.542;2023-06-10T04:07:28;5.47;;;4.97;;
462;SDS011;218;51.902;9.542;2023-06-10T04:09:55;5.43;;;5.03;;
462;SDS011;218;51.902;9.542;2023-06-10T04:12:24;5.50;;;5.10;;
462;SDS011;218;51.902;9.542;2023-06-10T04:14:51;6.30;;;5.70;;
462;SDS011;218;51.902;9.542;2023-06-10T04:17:18;5.80;;;5.30;;
462;SDS011;218;51.902;9.542;2023-06-10T04:19:45;6.00;;;5.60;;
462;SDS011;218;51.902;9.542;2023-06-10T04:22:12;6.00;;;4.73;;
462;SDS011;218;51.902;9.542;2023-06-10T04:24:39;6.07;;;5.57;;
462;SDS011;218;51.902;9.542;2023-06-10T04:27:10;6.50;;;5.90;;
462;SDS011;218;51.902;9.542;2023-06-10T04:29:39;5.70;;;5.30;;
462;SDS011;218;51.902;9.542;2023-06-10T04:32:06;5.77;;;5.27;;
462;SDS011;218;51.902;9.542;2023-06-10T04:34:33;6.40;;;5.90;;
462;SDS011;218;51.902;9.542;2023-06-10T04:37:01;5.50;;;5.10;;
462;SDS011;218;51.902;9.542;2023-06-10T04:39:28;6.83;;;5.80;;
462;SDS011;218;51.902;9.542;2023-06-10T04:41:57;6.60;;;5.97;;
462;SDS011;218;51.902;9.542;2023-06-10T04:44:24;5.72;;;5.32;;
462;SDS011;218;51.902;9.542;2023-06-10T04:46:52;6.90;;;6.30;;
462;SDS011;218;51.902;9.542;2023-06-10T04:49:21;6.17;;;5.57;;
462;SDS011;218;51.902;9.542;2023-06-10T04:51:48;6.03;;;5.50;;
462;SDS011;218;51.902;9.542;2023-06-10T04:54:16;5.97;;;5.57;;
462;SDS011;218;51.902;9.542;2023-06-10T04:56:43;8.30;;;6.00;;
462;SDS011;218;51.902;9.542;2023-06-10T04:59:10;6.30;;;5.87;;
462;SDS011;218;51.902;9.542;2023-06-10T05:01:37;6.40;;;5.80;;
462;SDS011;218;51.902;9.542;2023-06-10T05:04:05;5.90;;;5.43;;
462;SDS011;218;51.902;9.542;2023-06-10T05:06:32;6.20;;;5.60;;
462;SDS011;218;51.902;9.542;2023-06-10T05:09:01;7.80;;;6.00;;
462;SDS011;218;51.902;9.542;2023-06-10T05:11:28;8.37;;;6.73;;
462;SDS011;218;51.902;9.542;2023-06-10T05:13:55;6.47;;;5.90;;
462;SDS011;218;51.902;9.542;2023-06-10T05:16:22;6.57;;;6.07;;
462;SDS011;218;51.902;9.542;2023-06-10T05:18:49;6.20;;;5.70;;
462;SDS011;218;51.902;9.542;2023-06-10T05:21:18;7.27;;;6.60;;
462;SDS011;218;51.902;9.542;2023-06-10T05:23:45;7.30;;;6.70;;
462;SDS011;218;51.902;9.542;2023-06-10T05:26:12;6.47;;;5.97;;
462;SDS011;218;51.902;9.542;2023-06-10T05:28:40;7.00;;;6.10;;
462;SDS011;218;51.902;9.542;2023-06-10T05:31:08;8.73;;;6.40;;
462;SDS011;218;51.902;9.542;2023-06-10T05:33:35;6.83;;;6.20;;
462;SDS011;218;51.902;9.542;2023-06-10T05:36:02;7.10;;;6.60;;
462;SDS011;218;51.902;9.542;2023-06-10T05:38:31;6.57;;;5.90;;
462;SDS011;218;51.902;9.542;2023-06-10T05:40:58;7.20;;;5.77;;
462;SDS011;218;51.902;9.542;2023-06-10T05:43:25;6.90;;;6.40;;
462;SDS011;218;51.902;9.542;2023-06-10T05:45:52;7.87;;;7.10;;
462;SDS011;218;51.902;9.542;2023-06-10T05:48:21;6.07;;;5.57;;
462;SDS011;218;51.902;9.542;2023-06-10T05:50:48;7.13;;;6.40;;
462;SDS011;218;51.902;9.542;2023-06-10T05:53:15;6.47;;;5.87;;
462;SDS011;218;51.902;9.542;2023-06-10T05:55:44;7.57;;;6.70;;
462;SDS011;218;51.902;9.542;2023-06-10T05:58:11;6.63;;;5.57;;
462;SDS011;218;51.902;9.542;2023-06-10T06:00:38;6.20;;;5.70;;
462;SDS011;218;51.902;9.542;2023-06-10T06:03:06;6.93;;;6.33;;
462;SDS011;218;51.902;9.542;2023-06-10T06:05:33;6.20;;;5.70;;
462;SDS011;218;51.902;9.542;2023-06-10T06:08:04;6.70;;;6.20;;
462;SDS011;218;51.902;9.542;2023-06-10T06:10:34;6.40;;;5.10;;
462;SDS011;218;51.902;9.542;2023-06-10T06:13:02;7.83;;;7.20;;
462;SDS011;218;51.902;9.542;2023-06-10T06:15:29;7.57;;;6.73;;
462;SDS011;218;51.902;9.542;2023-06-10T06:17:56;9.00;;;6.57;;
462;SDS011;218;51.902;9.542;2023-06-10T06:20:23;6.60;;;6.10;;
462;SDS011;218;51.902;9.542;2023-06-10T06:22:50;5.97;;;5.50;;
462;SDS011;218;51.902;9.542;2023-06-10T06:25:17;6.60;;;6.10;;
462;SDS011;218;51.902;9.542;2023-06-10T06:27:43;8.20;;;6.17;;
462;SDS011;218;51.902;9.542;2023-06-10T06:30:12;7.57;;;6.87;;
462;SDS011;218;51.902;9.542;2023-06-10T06:32:39;7.20;;;5.90;;
462;SDS011;218;51.902;9.542;2023-06-10T06:35:06;7.67;;;6.83;;
462;SDS011;218;51.902;9.542;2023-06-10T06:37:34;6.73;;;6.10;;
462;SDS011;218;51.902;9.542;2023-06-10T06:40:02;5.80;;;5.30;;
462;SDS011;218;51.902;9.542;2023-06-10T06:42:30;7.27;;;6.60;;
462;SDS011;218;51.902;9.542;2023-06-10T06:44:57;7.47;;;5.80;;
462;SDS011;218;51.902;9.542;2023-06-10T06:47:25;6.20;;;5.60;;
462;SDS011;218;51.902;9.542;2023-06-10T06:49:52;6.53;;;5.90;;
462;SDS011;218;51.902;9.542;2023-06-10T06:52:19;6.70;;;6.00;;
462;SDS011;218;51.902;9.542;2023-06-10T06:54:47;6.93;;;6.37;;
462;SDS011;218;51.902;9.542;2023-06-10T06:57:14;7.00;;;6.27;;
462;SDS011;218;51.902;9.542;2023-06-10T06:59:41;6.50;;;5.90;;
462;SDS011;218;51.902;9.542;2023-06-10T07:02:08;7.80;;;7.10;;
462;SDS011;218;51.902;9.542;2023-06-10T07:04:36;6.90;;;5.53;;
462;SDS011;218;51.902;9.542;2023-06-10T07:07:04;6.30;;;5.70;;
462;SDS011;218;51.902;9.542;2023-06-10T07:09:33;6.53;;;5.87;;
462;SDS011;218;51.902;9.542;2023-06-10T07:12:00;5.73;;;5.27;;
462;SDS011;218;51.902;9.542;2023-06-10T07:14:27;6.93;;;5.83;;
462;SDS011;218;51.902;9.542;2023-06-10T07:16:53;5.47;;;5.07;;
462;SDS011;218;51.902;9.542;2023-06-10T07:19:20;5.83;;;5.40;;
462;SDS011;218;51.902;9.542;2023-06-10T07:21:49;6.13;;;5.63;;
462;SDS011;218;51.902;9.542;2023-06-10T07:24:15;6.10;;;5.50;;
462;SDS011;218;51.902;9.542;2023-06-10T07:26:42;5.33;;;4.83;;
462;SDS011;218;51.902;9.542;2023-06-10T07:29:09;6.73;;;6.23;;
462;SDS011;218;51.902;9.542;2023-06-10T07:31:36;6.30;;;5.77;;
462;SDS011;218;51.902;9.542;2023-06-10T07:34:03;6.73;;;6.00;;
462;SDS011;218;51.902;9.542;2023-06-10T07:36:30;6.10;;;5.60;;
462;SDS011;218;51.902;9.542;2023-06-10T07:38:58;6.23;;;5.73;;
462;SDS011;218;51.902;9.542;2023-06-10T07:41:25;7.37;;;6.70;;
462;SDS011;218;51.902;9.542;2023-06-10T07:43:52;6.60;;;6.10;;
462;SDS011;218;51.902;9.542;2023-06-10T07:46:21;5.13;;;4.73;;
462;SDS011;218;51.902;9.542;2023-06-10T07:48:48;7.17;;;6.13;;
462;SDS011;218;51.902;9.542;2023-06-10T07:51:15;6.47;;;5.40;;
462;SDS011;218;51.902;9.542;2023-06-10T07:53:42;10.30;;;5.90;;
462;SDS011;218;51.902;9.542;2023-06-10T07:56:11;6.37;;;5.77;;
462;SDS011;218;51.902;9.542;2023-06-10T07:58:38;6.97;;;5.73;;
462;SDS011;218;51.902;9.542;2023-06-10T08:01:05;5.57;;;5.07;;
462;SDS011;218;51.902;9.542;2023-06-10T08:03:32;6.13;;;5.73;;
462;SDS011;218;51.902;9.542;2023-06-10T08:05:59;5.97;;;5.43;;
462;SDS011;218;51.902;9.542;2023-06-10T08:08:26;5.63;;;5.20;;
462;SDS011;218;51.902;9.542;2023-06-10T08:10:53;6.47;;;5.23;;
462;SDS011;218;51.902;9.542;2023-06-10T08:13:21;7.20;;;5.57;;
462;SDS011;218;51.902;9.542;2023-06-10T08:15:48;5.73;;;4.77;;
462;SDS011;218;51.902;9.542;2023-06-10T08:18:16;6.60;;;5.70;;
462;SDS011;218;51.902;9.542;2023-06-10T08:20:43;6.07;;;5.47;;
462;SDS011;218;51.902;9.542;2023-06-10T08:23:09;6.20;;;5.30;;
462;SDS011;218;51.902;9.542;2023-06-10T08:25:36;5.70;;;5.10;;
462;SDS011;218;51.902;9.542;2023-06-10T08:28:03;6.93;;;5.90;;
462;SDS011;218;51.902;9.542;2023-06-10T08:30:31;5.67;;;5.17;;
462;SDS011;218;51.902;9.542;2023-06-10T08:32:59;7.20;;;5.90;;
462;SDS011;218;51.902;9.542;2023-06-10T08:35:26;6.77;;;5.67;;
462;SDS011;218;51.902;9.542;2023-06-10T08:37:53;5.90;;;5.30;;
462;SDS011;218;51.902;9.542;2023-06-10T08:40:20;6.67;;;5.93;;
462;SDS011;218;51.902;9.542;2023-06-10T08:42:48;6.07;;;5.57;;
462;SDS011;218;51.902;9.542;2023-06-10T08:45:23;6.33;;;5.57;;
462;SDS011;218;51.902;9.542;2023-06-10T08:47:57;6.50;;;6.00;;
462;SDS011;218;51.902;9.542;2023-06-10T08:50:25;8.70;;;6.27;;
462;SDS011;218;51.902;9.542;2023-06-10T08:52:56;6.70;;;6.10;;
462;SDS011;218;51.902;9.542;2023-06-10T08:55:27;6.53;;;5.47;;
462;SDS011;218;51.902;9.542;2023-06-10T08:57:56;7.93;;;6.30;;
462;SDS011;218;51.902;9.542;2023-06-10T09:00:25;7.37;;;6.67;;
462;SDS011;218;51.902;9.542;2023-06-10T09:02:53;5.77;;;5.37;;
462;SDS011;218;51.902;9.542;2023-06-10T09:05:21;6.70;;;6.20;;
462;SDS011;218;51.902;9.542;2023-06-10T09:07:48;7.27;;;6.77;;
462;SDS011;218;51.902;9.542;2023-06-10T09:10:17;7.50;;;6.80;;
462;SDS011;218;51.902;9.542;2023-06-10T09:12:44;8.00;;;7.20;;
462;SDS011;218;51.902;9.542;2023-06-10T09:15:11;6.77;;;6.27;;
462;SDS011;218;51.902;9.542;2023-06-10T09:17:39;7.23;;;6.63;;
462;SDS011;218;51.902;9.542;2023-06-10T09:20:07;7.77;;;6.77;;
462;SDS011;218;51.902;9.542;2023-06-10T09:22:36;7.07;;;6.47;;
462;SDS011;218;51.902;9.542;2023-06-10T09:25:03;8.30;;;7.60;;
462;SDS011;218;51.902;9.542;2023-06-10T09:27:32;7.37;;;6.77;;
462;SDS011;218;51.902;9.542;2023-06-10T09:29:59;8.60;;;8.00;;
462;SDS011;218;51.902;9.542;2023-06-10T09:32:26;7.60;;;7.00;;
462;SDS011;218;51.902;9.542;2023-06-10T09:34:54;7.87;;;7.10;;
462;SDS011;218;51.902;9.542;2023-06-10T09:37:21;8.03;;;7.20;;
462;SDS011;218;51.902;9.542;2023-06-10T09:40:03;8.97;;;8.20;;
462;SDS011;218;51.902;9.542;2023-06-10T09:42:32;8.77;;;8.03;;
462;SDS011;218;51.902;9.542;2023-06-10T09:45:00;8.10;;;7.60;;
462;SDS011;218;51.902;9.542;2023-06-10T09:47:27;8.87;;;8.07;;
462;SDS011;218;51.902;9.542;2023-06-10T09:49:55;8.70;;;7.90;;
462;SDS011;218;51.902;9.542;2023-06-10T09:52:22;8.93;;;8.23;;
462;SDS011;218;51.902;9.542;2023-06-10T09:54:50;8.50;;;7.80;;
462;SDS011;218;51.902;9.542;2023-06-10T09:57:19;9.70;;;8.97;;
462;SDS011;218;51.902;9.542;2023-06-10T09:59:47;9.90;;;9.00;;
462;SDS011;218;51.902;9.542;2023-06-10T10:02:14;10.50;;;7.93;;
462;SDS011;218;51.902;9.542;2023-06-10T10:04:41;9.30;;;8.60;;
462;SDS011;218;51.902;9.542;2023-06-10T10:07:08;9.10;;;8.40;;
462;SDS011;218;51.902;9.542;2023-06-10T10:09:36;8.77;;;8.13;;
462;SDS011;218;51.902;9.542;2023-06-10T10:12:04;9.23;;;8.60;;
462;SDS011;218;51.902;9.542;2023-06-10T10:14:36;9.40;;;8.70;;
462;SDS011;218;51.902;9.542;2023-06-10T10:17:04;11.83;;;10.93;;
462;SDS011;218;51.902;9.542;2023-06-10T10:19:36;10.60;;;9.90;;
462;SDS011;218;51.902;9.542;2023-06-10T10:22:15;11.63;;;10.63;;
462;SDS011;218;51.902;9.542;2023-06-10T10:24:46;11.87;;;10.77;;
462;SDS011;218;51.902;9.542;2023-06-10T10:27:17;10.90;;;10.20;;
462;SDS011;218;51.902;9.542;2023-06-10T10:29:50;11.43;;;10.63;;
462;SDS011;218;51.902;9.542;2023-06-10T10:32:20;11.23;;;10.43;;
462;SDS011;218;51.902;9.542;2023-06-10T10:34:53;12.30;;;11.20;;
462;SDS011;218;51.902;9.542;2023-06-10T10:37:29;11.80;;;10.90;;
462;SDS011;218;51.902;9.542;2023-06-10T10:39:57;12.83;;;11.83;;
462;SDS011;218;51.902;9.542;2023-06-10T10:42:26;10.60;;;9.80;;
462;SDS011;218;51.902;9.542;2023-06-10T10:44:55;10.93;;;10.13;;
462;SDS011;218;51.902;9.542;2023-06-10T10:47:22;10.93;;;10.00;;
462;SDS011;218;51.902;9.542;2023-06-10T10:49:51;10.17;;;9.33;;
462;SDS011;218;51.902;9.542;2023-06-10T10:52:19;11.40;;;10.40;;
462;SDS011;218;51.902;9.542;2023-06-10T10:54:46;10.43;;;9.60;;
462;SDS011;218;51.902;9.542;2023-06-10T10:57:14;10.87;;;9.97;;
462;SDS011;218;51.902;9.542;2023-06-10T10:59:52;11.07;;;10.30;;
462;SDS011;218;51.902;9.542;2023-06-10T11:02:33;10.93;;;10.03;;
462;SDS011;218;51.902;9.542;2023-06-10T11:05:04;10.93;;;10.13;;
462;SDS011;218;51.902;9.542;2023-06-10T11:07:32;9.97;;;9.30;;
462;SDS011;218;51.902;9.542;2023-06-10T11:10:00;9.53;;;8.93;;
462;SDS011;218;51.902;9.542;2023-06-10T11:15:23;11.63;;;8.97;;
462;SDS011;218;51.902;9.542;2023-06-10T11:18:08;8.57;;;8.07;;
462;SDS011;218;51.902;9.542;2023-06-10T11:20:51;9.30;;;8.60;;
462;SDS011;218;51.902;9.542;2023-06-10T11:23:38;9.13;;;8.43;;
462;SDS011;218;51.902;9.542;2023-06-10T11:26:09;9.80;;;8.83;;
462;SDS011;218;51.902;9.542;2023-06-10T11:28:40;11.80;;;8.13;;
462;SDS011;218;51.902;9.542;2023-06-10T11:31:09;9.27;;;8.40;;
462;SDS011;218;51.902;9.542;2023-06-10T11:33:44;10.20;;;9.20;;
462;SDS011;218;51.902;9.542;2023-06-10T11:36:12;9.37;;;8.47;;
462;SDS011;218;51.902;9.542;2023-06-10T11:38:40;9.77;;;8.97;;
462;SDS011;218;51.902;9.542;2023-06-10T11:41:07;10.60;;;9.80;;
462;SDS011;218;51.902;9.542;2023-06-10T11:43:34;9.27;;;8.47;;
462;SDS011;218;51.902;9.542;2023-06-10T11:46:01;9.90;;;9.20;;
462;SDS011;218;51.902;9.542;2023-06-10T11:48:29;11.00;;;10.17;;
462;SDS011;218;51.902;9.542;2023-06-10T11:50:56;9.53;;;8.83;;
462;SDS011;218;51.902;9.542;2023-06-10T11:53:23;9.77;;;9.07;;
462;SDS011;218;51.902;9.542;2023-06-10T11:55:50;11.47;;;10.47;;
462;SDS011;218;51.902;9.542;2023-06-10T11:58:19;9.93;;;9.33;;
462;SDS011;218;51.902;9.542;2023-06-10T12:00:47;10.83;;;9.93;;
462;SDS011;218;51.902;9.542;2023-06-10T12:03:15;10.30;;;9.60;;
462;SDS011;218;51.902;9.542;2023-06-10T12:05:55;10.37;;;9.57;;
462;SDS011;218;51.902;9.542;2023-06-10T12:08:23;10.87;;;9.90;;
462;SDS011;218;51.902;9.542;2023-06-10T12:10:50;11.10;;;10.13;;
462;SDS011;218;51.902;9.542;2023-06-10T12:13:17;10.30;;;9.57;;
462;SDS011;218;51.902;9.542;2023-06-10T12:15:44;11.23;;;10.27;;
462;SDS011;218;51.902;9.542;2023-06-10T12:18:15;10.77;;;10.07;;
462;SDS011;218;51.902;9.542;2023-06-10T12:20:45;10.47;;;9.77;;
462;SDS011;218;51.902;9.542;2023-06-10T12:23:15;11.13;;;10.30;;
462;SDS011;218;51.902;9.542;2023-06-10T12:25:49;10.57;;;9.60;;
462;SDS011;218;51.902;9.542;2023-06-10T12:28:20;11.87;;;10.90;;
462;SDS011;218;51.902;9.542;2023-06-10T12:30:47;11.43;;;10.40;;
462;SDS011;218;51.902;9.542;2023-06-10T12:33:17;10.93;;;10.23;;
462;SDS011;218;51.902;9.542;2023-06-10T12:35:48;11.27;;;10.30;;
462;SDS011;218;51.902;9.542;2023-06-10T12:38:21;12.00;;;10.93;;
462;SDS011;218;51.902;9.542;2023-06-10T12:40:51;12.00;;;11.10;;
462;SDS011;218;51.902;9.542;2023-06-10T12:43:19;11.90;;;10.80;;
462;SDS011;218;51.902;9.542;2023-06-10T12:45:46;11.83;;;10.93;;
462;SDS011;218;51.902;9.542;2023-06-10T12:48:17;11.10;;;10.10;;
462;SDS011;218;51.902;9.542;2023-06-10T12:50:49;12.03;;;10.93;;
462;SDS011;218;51.902;9.542;2023-06-10T12:53:18;11.27;;;10.47;;
462;SDS011;218;51.902;9.542;2023-06-10T12:55:47;11.57;;;10.70;;
462;SDS011;218;51.902;9.542;2023-06-10T12:58:14;11.60;;;10.60;;
462;SDS011;218;51.902;9.542;2023-06-10T13:00:41;11.83;;;10.93;;
462;SDS011;218;51.902;9.542;2023-06-10T13:03:08;11.60;;;10.80;;
462;SDS011;218;51.902;9.542;2023-06-10T13:05:36;11.13;;;10.33;;
462;SDS011;218;51.902;9.542;2023-06-10T13:08:04;12.10;;;11.20;;
462;SDS011;218;51.902;9.542;2023-06-10T13:10:32;10.50;;;9.70;;
462;SDS011;218;51.902;9.542;2023-06-10T13:13:01;11.47;;;10.77;;
462;SDS011;218;51.902;9.542;2023-06-10T13:15:31;10.73;;;10.13;;
462;SDS011;218;51.902;9.542;2023-06-10T13:18:01;11.60;;;10.80;;
462;SDS011;218;51.902;9.542;2023-06-10T13:20:30;11.57;;;10.80;;
462;SDS011;218;51.902;9.542;2023-06-10T13:22:58;11.77;;;10.60;;
462;SDS011;218;51.902;9.542;2023-06-10T13:25:26;10.83;;;10.00;;
462;SDS011;218;51.902;9.542;2023-06-10T13:27:56;11.67;;;10.87;;
462;SDS011;218;51.902;9.542;2023-06-10T13:30:25;12.33;;;11.43;;
462;SDS011;218;51.902;9.542;2023-06-10T13:32:52;11.00;;;10.30;;
462;SDS011;218;51.902;9.542;2023-06-10T13:35:19;11.13;;;10.33;;
462;SDS011;218;51.902;9.542;2023-06-10T13:37:46;11.60;;;10.70;;
462;SDS011;218;51.902;9.542;2023-06-10T13:40:14;11.70;;;10.53;;
462;SDS011;218;51.902;9.542;2023-06-10T13:42:41;12.40;;;11.40;;
462;SDS011;218;51.902;9.542;2023-06-10T13:45:08;10.13;;;9.30;;
462;SDS011;218;51.902;9.542;2023-06-10T13:47:37;11.80;;;10.97;;
462;SDS011;218;51.902;9.542;2023-06-10T13:50:04;11.27;;;10.50;;
462;SDS011;218;51.902;9.542;2023-06-10T13:52:32;10.77;;;10.07;;
462;SDS011;218;51.902;9.542;2023-06-10T13:54:59;9.50;;;8.87;;
462;SDS011;218;51.902;9.542;2023-06-10T13:57:26;10.03;;;9.23;;
462;SDS011;218;51.902;9.542;2023-06-10T13:59:52;9.60;;;9.00;;
462;SDS011;218;51.902;9.542;2023-06-10T14:02:21;10.33;;;9.50;;
462;SDS011;218;51.902;9.542;2023-06-10T14:04:49;9.00;;;8.40;;
462;SDS011;218;51.902;9.542;2023-06-10T14:07:16;8.53;;;7.93;;
462;SDS011;218;51.902;9.542;2023-06-10T14:09:43;9.43;;;8.77;;
462;SDS011;218;51.902;9.542;2023-06-10T14:12:10;9.27;;;8.57;;
462;SDS011;218;51.902;9.542;2023-06-10T14:14:37;8.83;;;8.20;;
462;SDS011;218;51.902;9.542;2023-06-10T14:17:05;9.70;;;8.97;;
462;SDS011;218;51.902;9.542;2023-06-10T14:19:32;9.90;;;9.23;;
462;SDS011;218;51.902;9.542;2023-06-10T14:22:00;8.97;;;8.47;;
462;SDS011;218;51.902;9.542;2023-06-10T14:24:30;9.17;;;8.67;;
462;SDS011;218;51.902;9.542;2023-06-10T14:26:57;10.10;;;9.47;;
462;SDS011;218;51.902;9.542;2023-06-10T14:29:24;9.23;;;8.63;;
462;SDS011;218;51.902;9.542;2023-06-10T14:31:53;9.57;;;8.93;;
462;SDS011;218;51.902;9.542;2023-06-10T14:34:20;9.20;;;8.57;;
462;SDS011;218;51.902;9.542;2023-06-10T14:36:48;9.63;;;8.83;;
462;SDS011;218;51.902;9.542;2023-06-10T14:39:16;8.97;;;8.47;;
462;SDS011;218;51.902;9.542;2023-06-10T14:41:43;8.80;;;8.10;;
462;SDS011;218;51.902;9.542;2023-06-10T14:44:10;9.90;;;9.30;;
462;SDS011;218;51.902;9.542;2023-06-10T14:46:37;10.03;;;9.13;;
462;SDS011;218;51.902;9.542;2023-06-10T14:49:04;9.53;;;8.83;;
462;SDS011;218;51.902;9.542;2023-06-10T14:51:31;9.97;;;9.27;;
462;SDS011;218;51.902;9.542;2023-06-10T14:53:58;8.60;;;8.10;;
462;SDS011;218;51.902;9.542;2023-06-10T14:56:26;9.50;;;8.90;;
462;SDS011;218;51.902;9.542;2023-06-10T14:58:53;9.10;;;8.40;;
462;SDS011;218;51.902;9.542;2023-06-10T15:01:20;10.73;;;9.83;;
462;SDS011;218;51.902;9.542;2023-06-10T15:03:47;8.50;;;7.83;;
462;SDS011;218;51.902;9.542;2023-06-10T15:06:14;9.13;;;8.57;;
462;SDS011;218;51.902;9.542;2023-06-10T15:08:42;9.33;;;8.63;;
462;SDS011;218;51.902;9.542;2023-06-10T15:11:10;9.17;;;8.63;;
462;SDS011;218;51.902;9.542;2023-06-10T15:13:38;9.40;;;8.70;;
462;SDS011;218;51.902;9.542;2023-06-10T15:16:05;9.80;;;9.20;;
462;SDS011;218;51.902;9.542;2023-06-10T15:18:32;9.47;;;8.77;;
462;SDS011;218;51.902;9.542;2023-06-10T15:20:59;9.87;;;9.07;;
462;SDS011;218;51.902;9.542;2023-06-10T15:23:26;9.90;;;9.27;;
462;SDS011;218;51.902;9.542;2023-06-10T15:25:53;9.30;;;8.70;;
462;SDS011;218;51.902;9.542;2023-06-10T15:28:20;10.03;;;9.43;;
462;SDS011;218;51.902;9.542;2023-06-10T15:30:48;9.97;;;9.37;;
462;SDS011;218;51.902;9.542;2023-06-10T15:33:15;9.63;;;9.03;;
462;SDS011;218;51.902;9.542;2023-06-10T15:35:42;8.80;;;8.20;;
462;SDS011;218;51.902;9.542;2023-06-10T15:38:09;9.33;;;8.73;;
462;SDS011;218;51.902;9.542;2023-06-10T15:40:36;8.33;;;7.73;;
462;SDS011;218;51.902;9.542;2023-06-10T15:43:02;8.73;;;8.07;;
462;SDS011;218;51.902;9.542;2023-06-10T15:45:29;9.20;;;8.60;;
462;SDS011;218;51.902;9.542;2023-06-10T15:47:58;9.43;;;8.73;;